Time;durP1;ratioP1;P1;durP2;ratioP2;P2;SDS_P1;SDS_P2;PMS_P1;PMS_P2;Temp;Humidity;BMP_temperature;BMP_pressure;BME280_temperature;BME280_humidity;BME280_pressure;Samples;Min_cycle;Max_cycle;Signal;HPM_P1;HPM_P2
2021/05/01 00:00:57;;;;;;;35.97;29.57;;;7.80;99.90;;;8.10;100.00;94662.00;2459208;56;26149;-60
2021/05/01 00:03:44;;;;;;;34.73;28.40;;;7.80;99.90;;;8.11;100.00;94657.00;2236548;57;26622;-60
2021/05/01 00:06:30;;;;;;;30.70;26.43;;;7.90;99.90;;;8.13;100.00;94654.00;2458765;56;26160;-61
2021/05/01 00:09:17;;;;;;;31.50;25.93;;;8.00;99.90;;;8.41;100.00;94641.00;2236297;57;26168;-61
2021/05/01 00:12:04;;;;;;;31.57;26.40;;;8.30;99.90;;;8.67;100.00;94626.00;2458971;56;26645;-61
2021/05/01 00:14:50;;;;;;;30.03;25.83;;;8.10;99.90;;;8.26;100.00;94624.00;2236516;57;26712;-60
2021/05/01 00:17:37;;;;;;;31.60;25.97;;;8.20;99.90;;;8.54;100.00;94630.00;2459188;56;26650;-61
2021/05/01 00:20:23;;;;;;;29.07;24.93;;;8.00;99.90;;;8.28;100.00;94627.00;2236131;57;26160;-60
2021/05/01 00:23:10;;;;;;;32.63;26.83;;;8.10;99.90;;;8.48;100.00;94635.00;2236549;57;26172;-60
2021/05/01 00:25:58;;;;;;;28.63;24.57;;;8.20;99.90;;;8.44;100.00;94617.00;2458856;56;26156;-60
2021/05/01 00:28:44;;;;;;;30.47;25.63;;;8.20;99.90;;;8.52;100.00;94621.00;2236371;57;26557;-60
2021/05/01 00:31:32;;;;;;;30.27;25.77;;;8.20;99.90;;;8.54;100.00;94614.00;2459254;56;26561;-60
2021/05/01 00:34:18;;;;;;;34.63;28.13;;;7.90;99.90;;;8.13;100.00;94623.00;2235983;57;26296;-60
2021/05/01 00:37:05;;;;;;;34.23;27.37;;;7.80;99.90;;;8.05;100.00;94629.00;2459494;56;26195;-61
2021/05/01 00:39:51;;;;;;;35.10;28.57;;;7.80;99.90;;;8.03;100.00;94633.00;2236515;57;26128;-60
2021/05/01 00:42:38;;;;;;;38.90;30.43;;;7.70;99.90;;;8.00;100.00;94641.00;2459061;56;26128;-61
2021/05/01 00:45:24;;;;;;;35.03;28.87;;;7.70;99.90;;;8.00;100.00;94647.00;2236727;57;26581;-62
2021/05/01 00:48:11;;;;;;;32.33;27.00;;;7.90;99.90;;;8.40;100.00;94644.00;2459446;56;26196;-61
2021/05/01 00:50:57;;;;;;;34.10;27.87;;;8.00;99.90;;;8.46;100.00;94627.00;2458689;56;26649;-61
2021/05/01 00:53:43;;;;;;;36.40;28.70;;;7.90;99.90;;;8.13;100.00;94624.00;2236481;57;26177;-61
2021/05/01 00:56:30;;;;;;;33.90;27.47;;;7.70;99.90;;;8.00;100.00;94620.00;2459012;56;26121;-62
2021/05/01 00:59:17;;;;;;;35.07;27.73;;;7.70;99.90;;;7.96;100.00;94614.00;2236243;57;26260;-61
2021/05/01 01:02:04;;;;;;;35.27;29.23;;;7.90;99.90;;;8.30;100.00;94625.00;2459646;56;26127;-61
2021/05/01 01:04:51;;;;;;;34.87;27.97;;;7.90;99.90;;;8.30;100.00;94617.00;2236131;57;26149;-60
2021/05/01 01:07:37;;;;;;;36.07;28.40;;;7.80;99.90;;;8.10;100.00;94616.00;2458342;56;26152;-61
2021/05/01 01:10:25;;;;;;;35.33;28.37;;;7.70;99.90;;;7.96;100.00;94617.00;2235690;57;26236;-61
2021/05/01 01:13:12;;;;;;;33.57;27.77;;;7.70;99.90;;;8.11;100.00;94619.00;2459393;56;26156;-60
2021/05/01 01:15:58;;;;;;;32.47;26.73;;;7.90;99.90;;;8.19;100.00;94612.00;2236099;57;26189;-60
2021/05/01 01:18:45;;;;;;;33.77;27.53;;;8.00;99.90;;;8.39;100.00;94616.00;2236384;57;26614;-61
2021/05/01 01:21:31;;;;;;;32.43;26.43;;;8.00;99.90;;;8.22;100.00;94615.00;2459066;56;26105;-60
2021/05/01 01:24:19;;;;;;;33.97;27.70;;;7.80;99.90;;;8.07;100.00;94621.00;2236185;57;26151;-60
2021/05/01 01:27:07;;;;;;;35.70;28.47;;;7.90;99.90;;;8.19;100.00;94606.00;2459342;56;27486;-60
2021/05/01 01:29:54;;;;;;;37.57;29.73;;;7.70;99.90;;;7.90;100.00;94617.00;2236380;57;26554;-61
2021/05/01 01:32:41;;;;;;;37.67;29.90;;;7.50;99.90;;;7.79;100.00;94615.00;2459054;56;26164;-60
2021/05/01 01:35:27;;;;;;;42.73;32.80;;;7.50;99.90;;;7.74;100.00;94626.00;2236105;57;26606;-61
2021/05/01 01:38:14;;;;;;;40.37;31.13;;;7.40;99.90;;;7.71;100.00;94637.00;2459748;56;26120;-59
2021/05/01 01:41:00;;;;;;;39.87;30.93;;;7.40;99.90;;;7.68;100.00;94644.00;2236052;57;26566;-60
2021/05/01 01:43:47;;;;;;;37.00;28.93;;;7.60;99.90;;;8.03;100.00;94641.00;2459240;56;26189;-60
2021/05/01 01:46:34;;;;;;;38.17;30.10;;;7.90;99.90;;;8.31;100.00;94629.00;2236165;57;26542;-61
2021/05/01 01:49:21;;;;;;;36.80;29.23;;;7.90;99.90;;;8.22;100.00;94635.00;2235982;57;26625;-60
2021/05/01 01:52:08;;;;;;;35.60;27.33;;;7.90;99.90;;;8.27;100.00;94633.00;2459316;56;26111;-60
2021/05/01 01:54:54;;;;;;;35.27;28.37;;;8.00;99.90;;;8.38;100.00;94619.00;2236583;57;26156;-60
2021/05/01 01:57:41;;;;;;;37.27;28.87;;;7.70;99.90;;;7.92;100.00;94617.00;2458729;56;26219;-61
2021/05/01 02:00:29;;;;;;;40.03;30.87;;;7.50;99.90;;;7.82;100.00;94629.00;2236234;57;26101;-60
2021/05/01 02:03:17;;;;;;;40.47;31.70;;;7.50;99.90;;;7.82;100.00;94639.00;2459432;56;26213;-60
2021/05/01 02:06:04;;;;;;;42.90;31.87;;;7.50;99.90;;;7.74;100.00;94636.00;2235568;57;26188;-60
2021/05/01 02:08:50;;;;;;;43.00;33.80;;;7.30;99.90;;;7.65;100.00;94632.00;2459499;56;26184;-60
2021/05/01 02:11:37;;;;;;;46.60;33.97;;;7.30;99.90;;;7.65;100.00;94626.00;2235877;57;26172;-60
2021/05/01 02:14:24;;;;;;;46.57;34.70;;;7.30;99.90;;;7.57;100.00;94632.00;2459231;56;26140;-60
2021/05/01 02:17:10;;;;;;;46.03;34.00;;;7.30;99.90;;;7.59;100.00;94638.00;2236652;57;26559;-60
2021/05/01 02:19:57;;;;;;;45.90;34.60;;;7.30;99.90;;;7.63;100.00;94639.00;2235935;57;26164;-60
2021/05/01 02:22:43;;;;;;;50.83;36.30;;;7.40;99.90;;;7.66;100.00;94634.00;2458764;56;26112;-60
2021/05/01 02:25:30;;;;;;;50.57;35.60;;;7.40;99.90;;;7.65;100.00;94638.00;2236314;57;26574;-60
2021/05/01 02:28:18;;;;;;;51.73;37.03;;;7.40;99.90;;;7.70;100.00;94635.00;2459261;56;26204;-60
2021/05/01 02:31:04;;;;;;;48.73;35.13;;;7.30;99.90;;;7.57;100.00;94626.00;2235202;57;26577;-60
2021/05/01 02:33:51;;;;;;;49.73;35.50;;;7.30;99.90;;;7.66;100.00;94634.00;2235620;57;26227;-60
2021/05/01 02:36:37;;;;;;;48.77;36.23;;;7.40;99.90;;;7.63;100.00;94634.00;2235027;57;26141;-60
2021/05/01 02:39:24;;;;;;;54.03;37.10;;;7.40;99.90;;;7.66;100.00;94638.00;2235909;57;26231;-59
2021/05/01 02:42:11;;;;;;;53.60;38.27;;;7.40;99.90;;;7.68;100.00;94647.00;2234704;57;26231;-60
2021/05/01 02:44:58;;;;;;;50.07;36.13;;;7.50;99.90;;;7.73;100.00;94639.00;2235669;57;26171;-61
2021/05/01 02:47:45;;;;;;;49.80;36.60;;;7.40;99.90;;;7.63;100.00;94626.00;2234809;57;26160;-60
2021/05/01 02:50:31;;;;;;;52.33;36.07;;;7.40;99.90;;;7.60;100.00;94627.00;2234610;57;26207;-60
2021/05/01 02:53:18;;;;;;;47.33;34.90;;;7.30;99.90;;;7.58;100.00;94626.00;2235446;57;26196;-60
2021/05/01 02:56:05;;;;;;;51.00;36.40;;;7.30;99.90;;;7.57;100.00;94634.00;2234563;57;27028;-60
2021/05/01 02:58:52;;;;;;;53.63;36.17;;;7.40;99.90;;;7.63;100.00;94642.00;2459850;56;26172;-61
2021/05/01 03:01:38;;;;;;;49.97;35.07;;;7.40;99.90;;;7.64;100.00;94639.00;2236450;57;26104;-61
2021/05/01 03:04:24;;;;;;;48.27;35.07;;;7.50;99.90;;;7.71;100.00;94639.00;2458899;56;26633;-61
2021/05/01 03:07:11;;;;;;;47.70;34.87;;;7.40;99.90;;;7.68;100.00;94637.00;2236621;57;26105;-61
2021/05/01 03:09:57;;;;;;;50.83;35.90;;;7.40;99.90;;;7.64;100.00;94638.00;2236305;57;26256;-61
2021/05/01 03:12:44;;;;;;;47.27;34.17;;;7.50;99.90;;;7.70;100.00;94629.00;2458734;56;26156;-60
2021/05/01 03:15:31;;;;;;;49.93;35.50;;;7.50;99.90;;;7.73;100.00;94632.00;2236398;57;26184;-60
2021/05/01 03:18:17;;;;;;;49.33;35.17;;;7.40;99.90;;;7.69;100.00;94628.00;2459532;56;26211;-61
2021/05/01 03:21:04;;;;;;;48.33;35.30;;;7.40;99.90;;;7.64;100.00;94607.00;2235690;57;26108;-60
2021/05/01 03:23:52;;;;;;;49.57;34.30;;;7.30;99.90;;;7.55;100.00;94607.00;2459821;56;26253;-61
2021/05/01 03:26:39;;;;;;;48.93;34.97;;;7.30;99.90;;;7.55;100.00;94607.00;2235915;57;26144;-61
2021/05/01 03:29:25;;;;;;;49.57;35.67;;;7.30;99.90;;;7.57;100.00;94598.00;2459183;56;26108;-61
2021/05/01 03:32:11;;;;;;;50.37;35.77;;;7.30;99.90;;;7.63;100.00;94598.00;2236712;57;26121;-61
2021/05/01 03:34:58;;;;;;;49.63;35.57;;;7.30;99.90;;;7.61;100.00;94599.00;2459134;56;26260;-61
2021/05/01 03:37:44;;;;;;;48.20;33.87;;;7.30;99.90;;;7.56;100.00;94591.00;2459310;56;26225;-61
2021/05/01 03:40:31;;;;;;;54.27;36.53;;;7.30;99.90;;;7.57;100.00;94580.00;2236326;57;26773;-61
2021/05/01 03:43:19;;;;;;;50.60;36.10;;;7.30;99.90;;;7.58;100.00;94584.00;2459362;56;26123;-60
2021/05/01 03:46:06;;;;;;;51.30;34.80;;;7.30;99.90;;;7.59;100.00;94586.00;2236277;57;26590;-60
2021/05/01 03:48:52;;;;;;;50.10;35.20;;;7.30;99.90;;;7.53;100.00;94578.00;2459723;56;26109;-60
2021/05/01 03:51:39;;;;;;;55.13;37.63;;;7.30;99.90;;;7.55;100.00;94579.00;2235888;57;26112;-61
2021/05/01 03:54:25;;;;;;;52.10;35.73;;;7.20;99.90;;;7.51;100.00;94572.00;2459401;56;26156;-60
2021/05/01 03:57:12;;;;;;;49.83;36.13;;;7.30;99.90;;;7.52;100.00;94584.00;2236319;57;26124;-60
2021/05/01 03:59:58;;;;;;;54.57;37.77;;;7.20;99.90;;;7.41;100.00;94571.00;2459316;56;26139;-60
2021/05/01 04:02:44;;;;;;;55.03;37.07;;;7.20;99.90;;;7.40;100.00;94565.00;2236400;57;26176;-60
2021/05/01 04:05:31;;;;;;;53.73;37.73;;;7.20;99.90;;;7.42;100.00;94570.00;2236043;57;26217;-60
2021/05/01 04:08:17;;;;;;;54.80;37.57;;;7.10;99.90;;;7.35;100.00;94568.00;2459310;56;26594;-60
2021/05/01 04:11:04;;;;;;;51.53;36.20;;;7.20;99.90;;;7.42;100.00;94570.00;2236212;57;26101;-60
2021/05/01 04:13:51;;;;;;;52.13;36.27;;;7.20;99.90;;;7.42;100.00;94565.00;2459657;56;26189;-60
2021/05/01 04:16:37;;;;;;;54.63;37.10;;;7.10;99.90;;;7.33;100.00;94559.00;2236160;57;26598;-61
2021/05/01 04:19:24;;;;;;;52.63;36.03;;;7.00;99.90;;;7.25;100.00;94554.00;2459224;56;26168;-61
2021/05/01 04:22:10;;;;;;;55.00;37.73;;;7.10;99.90;;;7.27;100.00;94553.00;2236312;57;26129;-60
2021/05/01 04:24:56;;;;;;;54.80;37.57;;;7.10;99.90;;;7.34;100.00;94561.00;2459630;56;26622;-60
2021/05/01 04:27:43;;;;;;;57.20;38.23;;;7.10;99.90;;;7.34;100.00;94571.00;2235990;57;26563;-60
2021/05/01 04:30:29;;;;;;;58.27;38.23;;;7.20;99.90;;;7.44;100.00;94582.00;2236174;57;26132;-60
2021/05/01 04:33:16;;;;;;;59.80;41.00;;;7.20;99.90;;;7.48;100.00;94599.00;2459379;56;26225;-60
2021/05/01 04:36:03;;;;;;;56.90;39.67;;;7.20;99.90;;;7.59;100.00;94609.00;2235931;57;26602;-60
2021/05/01 04:38:49;;;;;;;54.07;37.33;;;7.30;99.90;;;7.66;100.00;94620.00;2459411;56;26608;-60
2021/05/01 04:41:35;;;;;;;52.47;36.77;;;7.30;99.90;;;7.71;100.00;94611.00;2235906;57;26964;-60
2021/05/01 04:44:22;;;;;;;50.43;34.80;;;7.30;99.90;;;7.68;100.00;94605.00;2459522;56;26191;-61
2021/05/01 04:47:10;;;;;;;49.13;35.33;;;7.30;99.90;;;7.79;100.00;94602.00;2236701;57;26522;-62
2021/05/01 04:49:56;;;;;;;47.47;34.03;;;7.30;99.90;;;7.79;100.00;94595.00;2458961;56;26220;-61
2021/05/01 04:52:42;;;;;;;48.47;33.47;;;7.30;99.90;;;7.72;100.00;94599.00;2236143;57;26184;-60
2021/05/01 04:55:29;;;;;;;47.83;33.67;;;7.20;99.90;;;7.57;100.00;94590.00;2236123;57;26177;-60
2021/05/01 04:58:15;;;;;;;48.50;35.83;;;7.20;99.90;;;7.65;100.00;94579.00;2459338;56;26234;-60
2021/05/01 05:01:02;;;;;;;50.80;36.10;;;7.30;99.90;;;7.86;100.00;94599.00;2236488;57;26613;-61
2021/05/01 05:03:49;;;;;;;51.73;35.87;;;7.60;99.90;;;8.23;100.00;94600.00;2459487;56;26160;-61
2021/05/01 05:06:35;;;;;;;46.23;34.37;;;7.80;99.90;;;8.64;100.00;94593.00;2235840;57;26108;-61
2021/05/01 05:09:21;;;;;;;43.33;32.73;;;7.90;99.90;;;8.84;100.00;94578.00;2459531;56;26581;-61
2021/05/01 05:12:09;;;;;;;40.03;31.33;;;7.80;99.90;;;8.55;100.00;94560.00;2236100;57;26578;-61
2021/05/01 05:14:55;;;;;;;43.50;33.43;;;7.80;99.90;;;8.55;100.00;94547.00;2459370;56;26413;-61
2021/05/01 05:17:42;;;;;;;45.77;33.80;;;7.90;99.90;;;8.94;100.00;94539.00;2236491;57;26586;-60
2021/05/01 05:20:28;;;;;;;40.87;33.37;;;8.30;99.90;;;9.66;100.00;94535.00;2235837;57;26253;-61
2021/05/01 05:23:14;;;;;;;35.30;29.80;;;8.80;99.90;;;11.13;100.00;94489.00;2459261;56;26606;-61
2021/05/01 05:26:01;;;;;;;36.03;28.60;;;9.20;99.90;;;12.09;100.00;94462.00;2236150;57;26586;-61
2021/05/01 05:28:47;;;;;;;29.83;25.83;;;9.30;99.90;;;12.00;100.00;94458.00;2459363;56;26562;-61
2021/05/01 05:31:34;;;;;;;26.13;23.43;;;10.00;99.90;;;13.31;100.00;94460.00;2236227;57;26228;-61
2021/05/01 05:34:20;;;;;;;22.47;20.10;;;11.00;99.90;;;15.56;100.00;94449.00;2459085;56;26215;-61
2021/05/01 05:37:07;;;;;;;22.47;20.07;;;11.30;99.90;;;15.84;100.00;94450.00;2236381;57;26152;-61
2021/05/01 05:39:53;;;;;;;21.63;19.43;;;11.80;99.90;;;16.80;100.00;94442.00;2459553;56;26112;-61
2021/05/01 05:42:41;;;;;;;22.57;20.20;;;10.70;99.90;;;14.15;100.00;94442.00;2236274;57;26120;-61
2021/05/01 05:45:28;;;;;;;23.03;20.50;;;10.40;99.90;;;13.06;100.00;94447.00;2236393;57;26187;-61
2021/05/01 05:48:15;;;;;;;21.87;19.57;;;10.30;99.90;;;13.18;100.00;94447.00;2459701;56;26523;-61
2021/05/01 05:51:01;;;;;;;23.40;20.90;;;9.90;99.90;;;12.50;100.00;94436.00;2236010;57;26671;-61
2021/05/01 05:53:47;;;;;;;23.67;21.17;;;10.00;99.90;;;12.17;100.00;94446.00;2459257;56;26554;-62
2021/05/01 05:56:35;;;;;;;25.67;22.47;;;10.00;99.90;;;11.88;100.00;94435.00;2235822;57;26119;-62
2021/05/01 05:59:21;;;;;;;23.90;21.30;;;9.60;99.90;;;10.82;100.00;94428.00;2459828;56;26168;-62
2021/05/01 06:02:10;;;;;;;24.87;21.80;;;9.50;99.90;;;10.48;100.00;94442.00;2236243;57;26164;-62
2021/05/01 06:05:07;;;;;;;24.17;21.50;;;9.20;99.90;;;10.05;100.00;94447.00;2459182;56;26200;-62
2021/05/01 06:07:59;;;;;;;24.83;21.93;;;9.10;99.90;;;9.90;100.00;94443.00;2459604;56;26542;-62
2021/05/01 06:10:46;;;;;;;25.03;22.20;;;9.10;99.90;;;9.98;100.00;94441.00;2236288;57;26168;-62
2021/05/01 06:13:34;;;;;;;24.07;21.47;;;8.90;99.90;;;9.61;100.00;94429.00;2459345;56;26135;-62
2021/05/01 06:16:22;;;;;;;25.97;23.17;;;9.00;99.90;;;9.92;100.00;94423.00;2235480;56;26116;-60
2021/05/01 06:19:11;;;;;;;22.83;20.47;;;9.90;99.90;;;11.94;100.00;94400.00;2240191;56;26723;-60
2021/05/01 06:21:58;;;;;;;21.47;19.27;;;10.50;99.90;;;13.70;100.00;94399.00;2219096;56;26183;-61
2021/05/01 06:24:46;;;;;;;20.77;18.63;;;11.70;99.90;;;16.03;100.00;94383.00;2236488;57;26124;-61
2021/05/01 06:27:33;;;;;;;22.03;19.57;;;10.70;99.90;;;13.50;100.00;94394.00;2459163;56;26115;-61
2021/05/01 06:30:22;;;;;;;20.30;18.10;;;10.80;99.90;;;14.10;100.00;94394.00;2236263;57;26123;-61
2021/05/01 06:33:12;;;;;;;20.50;18.33;;;11.50;99.90;;;14.76;100.00;94395.00;2459764;56;26167;-61
2021/05/01 06:35:59;;;;;;;20.83;18.73;;;12.40;99.90;;;16.05;100.00;94396.00;2458867;56;26280;-61
2021/05/01 06:38:45;;;;;;;19.70;16.63;;;11.70;99.90;;;15.28;100.00;94420.00;2215598;57;26125;-60
2021/05/01 06:41:43;;;;;;;19.00;17.07;;;13.00;99.90;;;15.33;100.00;94426.00;2215430;57;26224;-61
2021/05/01 06:44:47;;;;;;;20.53;18.03;;;12.60;99.90;;;13.04;100.00;94419.00;2216054;57;26072;-60
2021/05/01 06:47:36;;;;;;;21.10;18.90;;;10.70;99.90;;;11.51;100.00;94418.00;2229958;56;26113;-61
2021/05/01 06:50:24;;;;;;;21.37;19.17;;;11.10;99.90;;;12.41;100.00;94414.00;2463504;56;26625;-61
2021/05/01 06:53:25;;;;;;;18.17;16.27;;;11.20;99.90;;;13.53;100.00;94417.00;2216161;57;26531;-60
2021/05/01 06:56:14;;;;;;;18.23;15.57;;;13.10;99.90;;;16.27;100.00;94413.00;2434286;56;26593;-60
2021/05/01 06:59:05;;;;;;;17.33;15.53;;;14.10;99.90;;;15.78;100.00;94424.00;2215735;56;26223;-60
2021/05/01 07:01:52;;;;;;;18.00;16.20;;;13.10;99.90;;;15.25;100.00;94432.00;2223657;56;26139;-61
2021/05/01 07:04:39;;;;;;;17.33;15.53;;;12.40;99.90;;;14.17;100.00;94429.00;2236007;57;26252;-61
2021/05/01 07:07:27;;;;;;;19.30;17.30;;;12.10;99.90;;;13.01;100.00;94435.00;2459125;56;26104;-60
2021/05/01 07:10:15;;;;;;;19.40;17.30;;;10.80;99.90;;;10.92;100.00;94434.00;2236434;57;26197;-60
2021/05/01 07:13:03;;;;;;;19.83;16.80;;;10.60;99.90;;;11.45;100.00;94437.00;2459465;56;26597;-60
2021/05/01 07:15:51;;;;;;;19.13;17.03;;;10.80;99.90;;;11.39;100.00;94434.00;2236375;57;26613;-60
2021/05/01 07:18:38;;;;;;;20.13;17.80;;;10.70;99.90;;;11.25;100.00;94421.00;2459236;56;26658;-61
2021/05/01 07:21:24;;;;;;;20.03;17.87;;;10.50;99.90;;;11.22;100.00;94424.00;2235896;57;26574;-61
2021/05/01 07:24:11;;;;;;;22.13;19.00;;;10.00;99.90;;;10.51;100.00;94428.00;2459420;56;26116;-61
2021/05/01 07:26:58;;;;;;;23.63;19.80;;;9.70;99.90;;;10.28;100.00;94413.00;2236102;57;26160;-60
2021/05/01 07:29:47;;;;;;;21.67;19.20;;;9.80;99.90;;;10.55;100.00;94414.00;2459476;56;26172;-61
2021/05/01 07:32:39;;;;;;;22.73;20.10;;;9.80;99.90;;;10.49;100.00;94405.00;2236766;57;26132;-61
2021/05/01 07:35:28;;;;;;;22.60;19.90;;;9.80;99.90;;;10.48;100.00;94397.00;2458977;56;26497;-61
2021/05/01 07:38:15;;;;;;;19.47;17.27;;;10.00;99.90;;;10.82;100.00;94386.00;2236663;57;26261;-61
2021/05/01 07:41:03;;;;;;;20.73;17.90;;;10.40;99.90;;;11.22;100.00;94375.00;2459081;56;26116;-61
2021/05/01 07:43:51;;;;;;;22.30;18.23;;;10.60;99.90;;;11.70;100.00;94368.00;2236422;57;26116;-59
2021/05/01 07:46:39;;;;;;;22.50;18.87;;;10.60;99.90;;;11.59;100.00;94361.00;2459459;56;26599;-61
2021/05/01 07:49:26;;;;;;;20.83;17.40;;;10.60;99.90;;;11.65;100.00;94355.00;2236054;57;26175;-61
2021/05/01 07:52:13;;;;;;;22.63;20.20;;;10.70;99.90;;;11.96;100.00;94352.00;2459172;56;26590;-61
2021/05/01 07:55:00;;;;;;;22.40;19.93;;;10.60;99.90;;;11.58;100.00;94344.00;2236538;57;26128;-61
2021/05/01 07:57:47;;;;;;;19.67;17.63;;;10.50;99.90;;;11.35;100.00;94337.00;2458878;56;26534;-61
2021/05/01 08:00:33;;;;;;;21.80;18.70;;;10.40;99.90;;;11.35;100.00;94346.00;2235938;57;26597;-60
2021/05/01 08:03:21;;;;;;;17.57;14.97;;;10.50;99.90;;;11.44;100.00;94339.00;2459697;56;26810;-60
2021/05/01 08:06:08;;;;;;;19.40;16.30;;;11.20;99.90;;;12.12;100.00;94338.00;2235578;57;26112;-60
2021/05/01 08:08:55;;;;;;;19.83;16.93;;;10.90;99.90;;;11.87;100.00;94339.00;2459704;56;26109;-60
2021/05/01 08:11:41;;;;;;;18.00;15.97;;;10.80;99.90;;;11.82;100.00;94329.00;2236142;57;26151;-60
2021/05/01 08:14:27;;;;;;;16.73;14.53;;;11.40;99.90;;;12.32;100.00;94325.00;2459309;56;26288;-60
2021/05/01 08:17:14;;;;;;;17.63;15.73;;;11.20;99.90;;;12.23;100.00;94319.00;2236497;57;26538;-60
2021/05/01 08:20:00;;;;;;;15.63;14.03;;;11.10;99.90;;;12.06;100.00;94307.00;2235982;57;26127;-59
2021/05/01 08:22:47;;;;;;;14.90;13.00;;;10.60;99.90;;;11.38;100.00;94311.00;2459022;56;26593;-60
2021/05/01 08:25:33;;;;;;;12.90;11.37;;;11.40;99.90;;;12.73;100.00;94307.00;2236046;57;26120;-60
2021/05/01 08:28:19;;;;;;;13.53;11.27;;;12.10;99.90;;;13.04;100.00;94315.00;2459667;56;26199;-61
2021/05/01 08:31:06;;;;;;;11.23;10.03;;;11.90;99.90;;;12.77;100.00;94324.00;2236563;57;26740;-60
2021/05/01 08:33:52;;;;;;;11.03;9.77;;;12.20;99.90;;;12.85;100.00;94326.00;2459499;56;26176;-60
2021/05/01 08:36:39;;;;;;;11.13;9.90;;;11.60;99.90;;;12.40;100.00;94333.00;2236083;57;26116;-60
2021/05/01 08:39:25;;;;;;;10.17;9.17;;;11.20;99.90;;;11.96;100.00;94333.00;2459289;56;26144;-60
2021/05/01 08:42:11;;;;;;;9.77;8.77;;;11.00;99.90;;;11.74;100.00;94333.00;2236052;57;26108;-60
2021/05/01 08:45:03;;;;;;;10.47;9.37;;;10.90;99.90;;;11.91;100.00;94335.00;2236621;57;26231;-60
2021/05/01 08:47:50;;;;;;;9.93;8.90;;;10.90;99.90;;;11.75;100.00;94342.00;2229922;56;26068;-60
2021/05/01 08:50:47;;;;;;;9.53;8.50;;;11.00;99.90;;;11.86;100.00;94345.00;2239559;56;26076;-60
2021/05/01 08:53:34;;;;;;;9.67;8.23;;;10.80;99.90;;;11.56;100.00;94348.00;2239756;56;26079;-59
2021/05/01 08:56:20;;;;;;;10.63;9.53;;;10.70;99.90;;;11.29;100.00;94352.00;2463582;56;26116;-59
2021/05/01 08:59:07;;;;;;;11.23;9.40;;;10.70;99.90;;;11.39;100.00;94354.00;2227499;57;26157;-59
2021/05/01 09:01:54;;;;;;;10.33;8.37;;;10.80;99.90;;;11.52;100.00;94355.00;2236638;57;26116;-59
2021/05/01 09:04:49;;;;;;;9.27;8.27;;;11.00;99.90;;;11.80;100.00;94348.00;2458957;56;26109;-59
2021/05/01 09:07:37;;;;;;;9.50;8.00;;;10.90;99.90;;;11.59;100.00;94332.00;2458735;56;26088;-59
2021/05/01 09:10:24;;;;;;;8.77;7.80;;;10.80;99.90;;;11.49;100.00;94326.00;2236331;57;26613;-60
2021/05/01 09:13:18;;;;;;;8.73;7.23;;;10.70;99.90;;;11.40;100.00;94322.00;2236154;57;26196;-59
2021/05/01 09:16:07;;;;;;;8.80;7.90;;;10.70;99.90;;;11.37;100.00;94325.00;2236294;57;26096;-59
2021/05/01 09:18:58;;;;;;;8.90;7.83;;;10.70;99.90;;;11.31;100.00;94325.00;2459419;56;26189;-59
2021/05/01 09:21:44;;;;;;;8.30;7.50;;;10.80;99.90;;;11.49;100.00;94320.00;2235730;57;26128;-59
2021/05/01 09:24:31;;;;;;;8.90;8.00;;;11.00;99.90;;;11.63;100.00;94318.00;2235678;57;26658;-59
2021/05/01 09:27:18;;;;;;;11.53;9.27;;;10.90;99.90;;;11.61;100.00;94320.00;2458536;56;26756;-59
2021/05/01 09:30:26;;;;;;;10.57;8.97;;;10.90;99.90;;;11.53;100.00;94312.00;2236357;57;26176;-59
2021/05/01 09:33:28;;;;;;;10.47;8.97;;;10.90;99.90;;;11.68;100.00;94317.00;2236226;57;26115;-60
2021/05/01 09:36:17;;;;;;;10.10;8.80;;;10.60;99.90;;;11.14;100.00;94299.00;2235523;57;26180;-61
2021/05/01 09:39:14;;;;;;;9.97;8.97;;;10.70;99.90;;;11.30;100.00;94296.00;2459401;56;26168;-61
2021/05/01 09:42:13;;;;;;;10.70;8.30;;;10.90;99.90;;;11.76;100.00;94291.00;2459139;56;26228;-61
2021/05/01 09:45:19;;;;;;;9.30;7.73;;;11.20;99.90;;;12.21;100.00;94297.00;2236645;57;26128;-61
2021/05/01 09:48:14;;;;;;;9.63;8.60;;;11.30;99.90;;;12.31;100.00;94289.00;2236633;57;26148;-62
2021/05/01 09:51:05;;;;;;;9.13;7.83;;;11.50;99.90;;;12.54;100.00;94292.00;2235836;57;26726;-61
2021/05/01 09:53:57;;;;;;;7.80;7.00;;;11.40;99.90;;;12.35;100.00;94289.00;2458926;56;26128;-61
2021/05/01 09:56:45;;;;;;;7.17;6.47;;;11.60;99.90;;;12.48;100.00;94298.00;2236287;57;26483;-61
2021/05/01 09:59:41;;;;;;;7.43;6.53;;;11.90;99.90;;;12.95;100.00;94290.00;2459168;56;26221;-58
2021/05/01 10:02:35;;;;;;;6.87;6.10;;;11.30;99.90;;;11.98;100.00;94297.00;2234430;57;26116;-58
2021/05/01 10:05:21;;;;;;;6.63;5.73;;;11.50;99.90;;;12.31;100.00;94292.00;2236384;57;26533;-59
2021/05/01 10:08:08;;;;;;;7.43;6.10;;;11.40;99.90;;;12.27;100.00;94294.00;2236103;57;26831;-58
2021/05/01 10:10:56;;;;;;;8.43;6.30;;;11.30;99.90;;;12.16;100.00;94289.00;2458551;56;26597;-58
2021/05/01 10:13:50;;;;;;;8.27;6.83;;;11.10;99.90;;;11.78;100.00;94286.00;2236539;57;26181;-58
2021/05/01 10:16:37;;;;;;;7.13;6.43;;;11.30;99.90;;;12.14;100.00;94297.00;2236137;57;26157;-58
2021/05/01 10:19:24;;;;;;;8.70;7.23;;;11.20;99.90;;;12.07;100.00;94291.00;2235577;57;26136;-59
2021/05/01 10:22:26;;;;;;;9.87;7.83;;;11.10;99.90;;;11.70;100.00;94282.00;2459028;56;26108;-59
2021/05/01 10:25:21;;;;;;;7.60;6.63;;;10.90;99.90;;;11.54;100.00;94278.00;2459159;56;26123;-58
2021/05/01 10:28:13;;;;;;;10.70;9.13;;;11.00;99.90;;;11.77;100.00;94290.00;2458718;56;26112;-58
2021/05/01 10:31:01;;;;;;;7.53;6.57;;;11.50;99.90;;;12.46;100.00;94279.00;2236172;57;26749;-58
2021/05/01 10:33:51;;;;;;;7.50;6.80;;;11.60;99.90;;;12.37;100.00;94273.00;2459058;56;26648;-58
2021/05/01 10:36:41;;;;;;;8.67;7.20;;;11.80;99.90;;;12.74;100.00;94271.00;2235773;57;26120;-58
2021/05/01 10:39:27;;;;;;;8.60;6.77;;;11.40;99.90;;;12.08;100.00;94277.00;2459279;56;26096;-59
2021/05/01 10:42:15;;;;;;;8.10;7.20;;;11.10;99.90;;;11.65;100.00;94271.00;2236359;57;26517;-58
2021/05/01 10:45:04;;;;;;;6.93;6.23;;;11.30;99.90;;;12.09;100.00;94267.00;2236010;57;26280;-59
2021/05/01 10:48:09;;;;;;;10.43;6.80;;;11.70;99.90;;;12.79;100.00;94267.00;2236188;57;26175;-59
2021/05/01 10:51:08;;;;;;;8.93;7.47;;;11.60;99.90;;;12.48;100.00;94262.00;2458486;56;26590;-59
2021/05/01 10:54:15;;;;;;;8.27;7.47;;;11.70;99.90;;;12.55;100.00;94257.00;2459414;56;26642;-58
2021/05/01 10:57:13;;;;;;;8.47;7.43;;;11.40;99.90;;;11.92;100.00;94266.00;2459587;56;30543;-59
2021/05/01 11:00:03;;;;;;;8.00;7.17;;;11.30;99.90;;;11.83;100.00;94262.00;2459811;56;26196;-59
2021/05/01 11:03:00;;;;;;;7.57;6.77;;;11.40;99.90;;;12.11;100.00;94260.00;2236663;57;26588;-58
2021/05/01 11:05:47;;;;;;;8.90;7.43;;;11.30;99.90;;;11.98;100.00;94265.00;2459075;56;26168;-59
2021/05/01 11:09:01;;;;;;;8.57;7.67;;;11.30;99.90;;;11.86;100.00;94253.00;2236760;57;26120;-58
2021/05/01 11:11:49;;;;;;;10.50;8.07;;;11.20;99.90;;;12.05;100.00;94263.00;2459262;56;26109;-58
2021/05/01 11:14:45;;;;;;;9.00;7.80;;;11.20;99.90;;;11.82;100.00;94255.00;2236257;57;26701;-59
2021/05/01 11:17:42;;;;;;;11.10;9.90;;;11.10;99.90;;;11.69;100.00;94262.00;2459489;56;26570;-59
2021/05/01 11:20:30;;;;;;;12.03;10.63;;;11.20;99.90;;;11.98;100.00;94271.00;2236354;57;26107;-59
2021/05/01 11:23:16;;;;;;;12.00;10.13;;;11.30;99.90;;;12.00;100.00;94263.00;2459186;56;26132;-59
2021/05/01 11:26:07;;;;;;;11.80;10.30;;;11.30;99.90;;;12.17;100.00;94257.00;2236195;57;26136;-59
2021/05/01 11:28:53;;;;;;;12.77;11.47;;;11.40;99.90;;;12.21;100.00;94258.00;2236810;57;26271;-59
2021/05/01 11:31:44;;;;;;;14.00;11.57;;;11.20;99.90;;;11.80;100.00;94252.00;2236282;57;26269;-59
2021/05/01 11:34:33;;;;;;;13.40;11.10;;;11.20;99.90;;;11.78;100.00;94260.00;2236101;57;26104;-59